createdAt,value
2023-03-23T00:01:42.571Z,32.30
2023-03-23T00:05:42.935Z,32.29
2023-03-23T00:09:42.982Z,32.20
2023-03-23T00:13:42.483Z,32.25
2023-03-23T00:17:42.454Z,32.15
2023-03-23T00:21:42.431Z,32.19
2023-03-23T00:25:42.721Z,32.16
2023-03-23T00:29:42.360Z,32.17
2023-03-23T00:33:42.316Z,32.14
2023-03-23T00:37:42.297Z,32.17
2023-03-23T00:41:42.270Z,32.11
2023-03-23T00:45:42.476Z,32.11
2023-03-23T00:49:42.199Z,32.08
2023-03-23T00:53:42.147Z,32.05
2023-03-23T00:57:42.104Z,32.02
2023-03-23T01:01:42.096Z,32.04
2023-03-23T01:05:42.328Z,32.03
2023-03-23T01:09:42.031Z,32.00
2023-03-23T01:13:42.481Z,32.01
2023-03-23T01:17:42.012Z,31.95
2023-03-23T01:21:42.000Z,31.92
2023-03-23T01:25:42.256Z,31.95
2023-03-23T01:29:41.993Z,31.93
2023-03-23T01:33:41.979Z,31.92
2023-03-23T01:37:41.972Z,31.90
2023-03-23T01:41:41.977Z,31.87
2023-03-23T01:45:42.266Z,31.83
2023-03-23T01:49:41.958Z,31.83
2023-03-23T01:53:41.957Z,31.85
2023-03-23T01:57:41.945Z,31.84
2023-03-23T02:01:41.937Z,31.80
2023-03-23T02:05:42.107Z,31.81
2023-03-23T02:09:41.899Z,31.76
2023-03-23T02:13:41.875Z,31.72
2023-03-23T02:17:41.855Z,31.72
2023-03-23T02:21:41.829Z,31.69
2023-03-23T02:25:41.953Z,31.72
2023-03-23T02:29:43.636Z,31.69
2023-03-23T02:33:41.612Z,31.66
2023-03-23T02:37:41.429Z,31.66
2023-03-23T02:41:41.262Z,31.63
2023-03-23T02:45:41.184Z,31.63
2023-03-23T02:49:40.977Z,31.60
2023-03-23T02:53:40.733Z,31.61
2023-03-23T02:57:40.742Z,31.61
2023-03-23T03:01:40.435Z,31.60
2023-03-23T03:05:40.410Z,31.58
2023-03-23T03:09:40.000Z,31.54
2023-03-23T03:13:39.806Z,31.57
2023-03-23T03:17:39.752Z,31.57
2023-03-23T03:21:39.728Z,31.55
2023-03-23T03:25:40.374Z,31.49
2023-03-23T03:29:39.685Z,31.46
2023-03-23T03:33:39.972Z,31.54
2023-03-23T03:37:39.670Z,31.48
2023-03-23T03:41:39.663Z,31.46
2023-03-23T03:45:39.670Z,31.51
2023-03-23T03:49:39.641Z,31.46
2023-03-23T03:53:39.637Z,31.43
2023-03-23T03:57:39.626Z,31.45
2023-03-23T04:01:39.622Z,31.48
2023-03-23T04:05:39.980Z,31.43
2023-03-23T04:09:39.626Z,31.46
2023-03-23T04:13:39.613Z,31.37
2023-03-23T04:17:39.613Z,31.45
2023-03-23T04:21:39.597Z,31.39
2023-03-23T04:25:39.726Z,31.42
2023-03-23T04:29:39.576Z,31.37
2023-03-23T04:33:58.722Z,31.31
2023-03-23T04:37:40.380Z,31.31
2023-03-23T04:41:39.474Z,31.34
2023-03-23T04:45:39.169Z,31.25
2023-03-23T04:49:38.942Z,31.25
2023-03-23T04:53:38.931Z,31.27
2023-03-23T04:57:38.863Z,31.24
2023-03-23T05:01:38.824Z,31.22
2023-03-23T05:05:38.789Z,31.21
2023-03-23T05:09:38.815Z,31.21
2023-03-23T05:13:38.707Z,31.18
2023-03-23T05:17:38.670Z,31.15
2023-03-23T05:21:38.640Z,31.15
2023-03-23T05:25:38.601Z,31.15
2023-03-23T05:29:38.570Z,31.15
2023-03-23T05:33:38.573Z,31.18
2023-03-23T05:37:38.464Z,31.15
2023-03-23T05:41:38.440Z,31.12
2023-03-23T05:45:38.250Z,31.07
2023-03-23T05:49:38.067Z,31.12
2023-03-23T05:53:37.894Z,31.07
2023-03-23T05:57:37.711Z,31.07
2023-03-23T06:01:37.530Z,31.02
2023-03-23T06:05:37.340Z,31.06
2023-03-23T06:09:37.144Z,31.10
2023-03-23T06:13:36.965Z,31.21
2023-03-23T06:17:36.796Z,31.42
2023-03-23T06:21:36.613Z,31.86
2023-03-23T06:25:36.444Z,32.31
2023-03-23T06:29:36.280Z,32.23
2023-03-23T06:33:36.121Z,32.30
2023-03-23T06:37:35.960Z,31.62
2023-03-23T06:41:35.801Z,31.45
2023-03-23T06:45:35.627Z,31.68
2023-03-23T06:49:35.464Z,31.71
2023-03-23T06:53:35.294Z,31.71
2023-03-23T06:57:35.212Z,31.74
2023-03-23T07:01:35.220Z,31.70
2023-03-23T07:05:35.133Z,31.70
2023-03-23T07:09:43.116Z,31.50
2023-03-23T07:13:36.470Z,31.60
2023-03-23T07:17:34.768Z,31.56
2023-03-23T07:21:34.610Z,31.53
2023-03-23T07:25:34.434Z,32.11
2023-03-23T07:29:34.315Z,32.01
2023-03-23T07:33:34.258Z,31.69
2023-03-23T07:37:34.174Z,31.61
2023-03-23T07:41:34.110Z,31.73
2023-03-23T07:45:34.078Z,31.71
2023-03-23T07:49:33.998Z,31.75
2023-03-23T07:53:33.964Z,31.79
2023-03-23T07:57:33.895Z,30.01
2023-03-23T08:01:33.863Z,28.45
2023-03-23T08:05:33.885Z,28.09
2023-03-23T08:09:33.929Z,29.22
2023-03-23T08:13:33.986Z,29.12
2023-03-23T08:17:33.964Z,30.88
2023-03-23T08:21:34.056Z,32.58
2023-03-23T08:25:33.992Z,31.77
2023-03-23T08:29:33.934Z,31.46
2023-03-23T08:33:34.410Z,31.60
2023-03-23T08:37:33.776Z,31.66
2023-03-23T08:41:33.755Z,31.67
2023-03-23T08:45:33.657Z,31.73
2023-03-23T08:49:33.600Z,31.83
2023-03-23T08:53:34.377Z,31.79
2023-03-23T08:57:33.505Z,31.81
2023-03-23T09:01:33.449Z,31.79
2023-03-23T09:05:34.979Z,31.90
2023-03-23T09:09:33.442Z,32.06
2023-03-23T09:13:33.321Z,33.44
2023-03-23T09:17:33.449Z,32.23
2023-03-23T09:21:33.252Z,32.82
2023-03-23T09:25:33.951Z,32.28
2023-03-23T09:29:33.872Z,32.62
2023-03-23T09:33:33.120Z,32.12
2023-03-23T09:37:33.067Z,31.94
2023-03-23T09:41:33.025Z,31.80
2023-03-23T09:45:33.000Z,31.89
2023-03-23T09:49:32.994Z,31.96
2023-03-23T09:53:33.845Z,31.99
2023-03-23T09:57:32.688Z,31.90
2023-03-23T10:01:32.550Z,31.84
2023-03-23T10:05:32.364Z,31.72
2023-03-23T10:09:32.276Z,31.73
2023-03-23T10:13:32.234Z,31.68
2023-03-23T10:17:32.294Z,32.45
2023-03-23T10:21:32.227Z,32.71
2023-03-23T10:25:32.170Z,31.96
2023-03-23T10:29:32.131Z,32.05
2023-03-23T10:33:32.081Z,31.65
2023-03-23T10:37:32.026Z,31.57
2023-03-23T10:41:31.993Z,31.45
2023-03-23T10:45:32.469Z,31.52
2023-03-23T10:49:31.912Z,31.49
2023-03-23T10:53:31.813Z,31.50
2023-03-23T10:57:31.783Z,31.50
2023-03-23T11:01:31.720Z,31.43
2023-03-23T11:05:31.716Z,31.63
2023-03-23T11:09:31.644Z,32.07
2023-03-23T11:13:31.702Z,31.88
2023-03-23T11:17:31.954Z,31.59
2023-03-23T11:21:31.606Z,31.68
2023-03-23T11:25:31.702Z,31.82
2023-03-23T11:29:32.927Z,31.76
2023-03-23T11:33:31.459Z,32.05
2023-03-23T11:37:31.422Z,32.00
2023-03-23T11:41:31.398Z,32.21
2023-03-23T11:45:31.373Z,32.10
2023-03-23T11:49:33.511Z,32.11
2023-03-23T11:53:31.135Z,32.09
2023-03-23T11:57:30.946Z,32.21
2023-03-23T12:01:30.832Z,32.84
2023-03-23T12:05:30.643Z,33.40
2023-03-23T12:09:30.402Z,33.68
2023-03-23T12:13:30.234Z,34.11
2023-03-23T12:17:30.094Z,33.58
2023-03-23T12:21:29.920Z,33.65
2023-03-23T12:25:29.741Z,33.49
2023-03-23T12:29:29.557Z,33.60
2023-03-23T12:33:29.367Z,33.30
2023-03-23T12:37:29.201Z,33.45
2023-03-23T12:41:29.033Z,33.39
2023-03-23T12:45:28.889Z,33.39
2023-03-23T12:49:28.693Z,33.39
2023-03-23T12:53:28.517Z,33.51
2023-03-23T12:57:28.456Z,34.11
2023-03-23T13:01:28.153Z,34.17
2023-03-23T13:05:27.985Z,34.50
2023-03-23T13:09:27.808Z,34.64
2023-03-23T13:13:27.643Z,34.92
2023-03-23T13:17:27.464Z,34.48
2023-03-23T13:21:27.291Z,34.34
2023-03-23T13:25:27.268Z,34.39
2023-03-23T13:29:26.970Z,34.28
2023-03-23T13:33:26.755Z,34.37
2023-03-23T13:37:26.585Z,34.16
2023-03-23T13:41:26.406Z,34.19
2023-03-23T13:45:26.282Z,34.21
2023-03-23T13:49:26.180Z,34.24
2023-03-23T13:53:26.229Z,34.19
2023-03-23T13:57:25.920Z,34.37
2023-03-23T14:01:26.442Z,34.57
2023-03-23T14:05:25.591Z,34.40
2023-03-23T14:09:25.406Z,34.40
2023-03-23T14:13:25.228Z,34.39
2023-03-23T14:17:25.050Z,34.50
2023-03-23T14:21:25.445Z,34.44
2023-03-23T14:25:24.690Z,34.44
2023-03-23T14:29:24.499Z,34.39
2023-03-23T14:33:24.326Z,34.33
2023-03-23T14:37:24.106Z,34.35
2023-03-23T14:41:24.005Z,34.26
2023-03-23T14:45:23.899Z,34.35
2023-03-23T14:49:23.780Z,34.43
2023-03-23T14:53:23.685Z,34.48
2023-03-23T14:57:23.579Z,34.24
2023-03-23T15:01:23.460Z,34.53
2023-03-23T15:05:23.353Z,34.83
2023-03-23T15:09:23.234Z,34.73
2023-03-23T15:13:23.138Z,34.71
2023-03-23T15:17:23.031Z,34.74
2023-03-23T15:21:23.090Z,34.72
2023-03-23T15:25:22.841Z,34.72
2023-03-23T15:29:26.660Z,34.80
2023-03-23T15:33:22.536Z,34.01
2023-03-23T15:37:23.386Z,31.54
2023-03-23T15:41:22.204Z,30.86
2023-03-23T15:45:21.931Z,29.62
2023-03-23T15:49:21.718Z,32.19
2023-03-23T15:53:21.546Z,31.49
2023-03-23T15:57:21.409Z,32.08
2023-03-23T16:01:21.387Z,31.93
2023-03-23T16:05:21.236Z,31.52
2023-03-23T16:09:21.153Z,32.38
2023-03-23T16:13:21.089Z,32.88
2023-03-23T16:17:21.014Z,33.17
2023-03-23T16:21:20.957Z,33.35
2023-03-23T16:25:20.890Z,33.50
2023-03-23T16:29:40.079Z,33.50
2023-03-23T16:33:21.678Z,33.51
2023-03-23T16:41:20.560Z,33.63
2023-03-23T16:45:20.067Z,33.73
2023-03-23T16:49:19.866Z,33.77
2023-03-23T17:01:19.714Z,33.81
2023-03-23T17:05:19.596Z,33.79
2023-03-23T17:09:19.510Z,33.83
2023-03-23T17:13:19.487Z,33.87
2023-03-23T17:17:19.369Z,33.85
2023-03-23T17:21:19.471Z,33.81
2023-03-23T17:45:18.992Z,33.83
2023-03-23T17:49:18.821Z,33.88
2023-03-23T17:53:18.757Z,33.89
2023-03-23T18:01:18.682Z,33.87
2023-03-23T18:09:18.512Z,33.93
2023-03-23T18:13:18.453Z,33.81
2023-03-23T18:17:18.409Z,33.82
2023-03-23T18:25:18.297Z,33.84
2023-03-23T18:29:18.254Z,33.83
2023-03-23T18:33:19.054Z,33.83
2023-03-23T18:41:18.104Z,33.83
2023-03-23T18:45:18.044Z,33.83
2023-03-23T18:49:17.971Z,33.83
2023-03-23T18:53:17.916Z,33.85
2023-03-23T18:57:17.850Z,33.83
2023-03-23T19:01:17.856Z,33.84
2023-03-23T19:05:17.742Z,33.90
2023-03-23T19:09:17.760Z,33.87
2023-03-23T19:17:17.566Z,33.92
2023-03-23T19:25:17.424Z,34.06
2023-03-23T19:29:25.515Z,34.05
2023-03-23T19:33:18.169Z,34.10
2023-03-23T19:45:16.625Z,34.16
2023-03-23T19:49:16.546Z,34.18
2023-03-23T19:53:18.917Z,34.14
2023-03-23T19:57:16.378Z,34.13
2023-03-23T20:01:16.469Z,34.06
2023-03-23T20:05:16.590Z,34.12
2023-03-23T20:09:15.774Z,34.15
2023-03-23T20:13:15.597Z,34.18
2023-03-23T20:17:15.406Z,34.16
2023-03-23T20:21:15.222Z,34.22
2023-03-23T20:25:15.257Z,34.20
2023-03-23T20:29:14.862Z,34.22
2023-03-23T20:33:14.678Z,34.22
2023-03-23T20:37:14.479Z,34.25
2023-03-23T20:41:14.298Z,34.27
2023-03-23T20:45:14.116Z,34.26
2023-03-23T20:49:13.953Z,34.33
2023-03-23T20:53:13.780Z,34.34
2023-03-23T20:57:13.691Z,34.41
2023-03-23T21:01:13.608Z,34.38
2023-03-23T21:05:13.540Z,34.41
2023-03-23T21:09:13.485Z,34.41
2023-03-23T21:13:13.925Z,34.45
2023-03-23T21:17:13.352Z,34.44
2023-03-23T21:21:13.287Z,34.44
2023-03-23T21:25:13.212Z,34.41
2023-03-23T21:29:13.152Z,34.42
2023-03-23T21:37:13.024Z,34.36
2023-03-23T21:41:12.982Z,34.36
2023-03-23T21:45:12.920Z,34.38
2023-03-23T21:49:12.872Z,34.30
2023-03-23T22:33:12.245Z,34.16
2023-03-23T22:49:12.044Z,34.13
2023-03-23T22:57:12.433Z,34.03
2023-03-23T23:09:11.724Z,33.95
2023-03-23T23:13:11.681Z,33.92
2023-03-23T23:17:11.642Z,33.91
2023-03-23T23:21:11.622Z,33.88
2023-03-23T23:25:11.536Z,33.84
2023-03-23T23:29:11.496Z,33.84
2023-03-23T23:33:11.438Z,33.81
